createdAt,value
2023-11-19T00:00:22.027Z,23.83
2023-11-19T00:02:49.496Z,23.30
2023-11-19T00:05:16.992Z,25.65
2023-11-19T00:07:44.534Z,24.33
2023-11-19T00:10:20.558Z,24.17
2023-11-19T00:12:51.485Z,23.50
2023-11-19T00:15:20.054Z,23.77
2023-11-19T00:17:50.192Z,24.63
2023-11-19T00:20:20.305Z,23.77
2023-11-19T00:22:50.609Z,24.00
2023-11-19T00:25:23.311Z,26.05
2023-11-19T00:27:52.284Z,24.60
2023-11-19T00:30:19.727Z,24.67
2023-11-19T00:32:47.120Z,23.40
2023-11-19T00:35:16.242Z,24.98
2023-11-19T00:37:44.239Z,24.33
2023-11-19T00:40:12.557Z,25.55
2023-11-19T00:42:40.103Z,24.33
2023-11-19T00:45:11.527Z,23.92
2023-11-19T00:47:40.238Z,25.98
2023-11-19T00:50:11.215Z,23.27
2023-11-19T00:52:39.246Z,23.60
2023-11-19T00:55:08.439Z,22.70
2023-11-19T00:57:37.096Z,25.05
2023-11-19T01:00:22.451Z,25.38
2023-11-19T01:02:52.212Z,24.98
2023-11-19T01:05:23.919Z,24.80
2023-11-19T01:07:53.712Z,26.42
2023-11-19T01:10:21.778Z,27.27
2023-11-19T01:12:49.162Z,30.30
2023-11-19T01:15:16.596Z,29.35
2023-11-19T01:20:15.545Z,25.67
2023-11-19T01:22:42.841Z,26.20
2023-11-19T01:25:09.987Z,25.95
2023-11-19T01:27:37.765Z,24.67
2023-11-19T01:30:05.583Z,26.35
2023-11-19T01:32:32.978Z,25.23
2023-11-19T01:35:00.359Z,24.73
2023-11-19T01:37:27.794Z,24.75
2023-11-19T01:42:28.835Z,28.48
2023-11-19T01:45:02.711Z,26.27
2023-11-19T01:47:32.250Z,25.42
2023-11-19T01:50:00.658Z,24.48
2023-11-19T01:52:28.808Z,23.73
2023-11-19T01:54:56.450Z,24.08
2023-11-19T01:57:24.876Z,24.05
2023-11-19T01:59:53.864Z,22.55
2023-11-19T02:02:21.981Z,21.73
2023-11-19T02:04:52.197Z,22.15
2023-11-19T02:09:46.804Z,21.83
2023-11-19T02:12:14.347Z,20.83
2023-11-19T02:14:41.673Z,20.75
2023-11-19T02:17:26.123Z,19.63
2023-11-19T02:19:53.457Z,21.50
2023-11-19T02:22:21.384Z,19.35
2023-11-19T02:24:52.483Z,21.48
2023-11-19T02:27:37.044Z,19.77
2023-11-19T02:30:07.712Z,18.40
2023-11-19T02:32:35.111Z,19.02
2023-11-19T02:37:33.129Z,17.88
2023-11-19T02:40:11.069Z,18.48
2023-11-19T02:42:38.460Z,19.63
2023-11-19T02:45:07.652Z,18.10
2023-11-19T02:47:35.726Z,19.05
2023-11-19T02:50:04.094Z,17.77
2023-11-19T02:52:36.341Z,19.10
2023-11-19T02:55:03.727Z,17.73
2023-11-19T02:57:33.928Z,18.75
2023-11-19T03:02:35.458Z,16.05
2023-11-19T03:05:04.872Z,15.15
2023-11-19T03:07:32.088Z,17.58
2023-11-19T03:09:59.259Z,17.60
2023-11-19T03:12:27.768Z,18.20
2023-11-19T03:14:56.648Z,18.40
2023-11-19T03:17:25.586Z,18.05
2023-11-19T03:19:53.520Z,19.00
2023-11-19T03:22:22.208Z,17.80
2023-11-19T03:24:52.480Z,17.17
2023-11-19T03:27:19.955Z,18.02
2023-11-19T03:29:47.161Z,16.65
2023-11-19T03:32:14.400Z,17.75
2023-11-19T03:34:42.069Z,17.98
2023-11-19T03:37:10.203Z,17.80
2023-11-19T03:39:37.432Z,16.23
2023-11-19T03:42:04.882Z,17.73
2023-11-19T03:44:32.077Z,17.35
2023-11-19T03:46:59.341Z,17.90
2023-11-19T03:49:26.576Z,19.45
2023-11-19T03:51:53.798Z,17.25
2023-11-19T03:54:21.728Z,16.73
2023-11-19T03:56:49.000Z,15.18
2023-11-19T03:59:16.651Z,16.42
2023-11-19T04:01:43.899Z,15.82
2023-11-19T04:04:11.156Z,16.15
2023-11-19T04:06:38.403Z,17.63
2023-11-19T04:09:05.699Z,15.43
2023-11-19T04:11:34.004Z,16.92
2023-11-19T04:14:01.205Z,15.65
2023-11-19T04:16:32.180Z,16.05
2023-11-19T04:18:59.543Z,15.68
2023-11-19T04:21:26.853Z,16.08
2023-11-19T04:23:54.042Z,16.60
2023-11-19T04:26:21.273Z,14.73
2023-11-19T04:28:50.598Z,15.88
2023-11-19T04:31:21.060Z,16.02
2023-11-19T04:33:48.551Z,15.68
2023-11-19T04:36:20.569Z,15.40
2023-11-19T04:38:47.800Z,15.10
2023-11-19T04:41:15.802Z,15.75
2023-11-19T04:43:42.993Z,15.23
2023-11-19T04:46:11.673Z,14.70
2023-11-19T04:48:42.374Z,15.27
2023-11-19T04:51:12.800Z,14.13
2023-11-19T04:56:11.177Z,15.02
2023-11-19T04:58:38.617Z,14.55
2023-11-19T05:01:06.327Z,14.38
2023-11-19T05:03:33.804Z,14.88
2023-11-19T05:06:01.132Z,15.50
2023-11-19T05:08:28.523Z,17.35
2023-11-19T05:10:56.046Z,17.00
2023-11-19T05:13:23.828Z,16.35
2023-11-19T05:15:51.058Z,16.85
2023-11-19T05:18:18.441Z,14.43
2023-11-19T05:20:47.101Z,16.10
2023-11-19T05:25:44.439Z,16.10
2023-11-19T05:28:11.634Z,16.35
2023-11-19T05:30:38.926Z,18.77
2023-11-19T05:33:06.164Z,18.65
2023-11-19T05:35:33.584Z,16.77
2023-11-19T05:38:00.798Z,15.60
2023-11-19T05:40:27.993Z,15.88
2023-11-19T05:42:55.278Z,15.60
2023-11-19T05:45:22.449Z,15.05
2023-11-19T05:47:49.755Z,16.35
2023-11-19T05:50:17.006Z,18.20
2023-11-19T05:52:44.631Z,15.95
2023-11-19T05:55:12.252Z,16.17
2023-11-19T06:00:12.045Z,16.83
2023-11-19T06:02:39.631Z,17.00
2023-11-19T06:05:07.873Z,15.88
2023-11-19T06:07:35.736Z,17.55
2023-11-19T06:10:04.300Z,15.98
2023-11-19T06:12:35.022Z,15.73
2023-11-19T06:15:02.151Z,15.73
2023-11-19T06:17:29.359Z,16.60
2023-11-19T06:19:56.563Z,17.38
2023-11-19T06:22:23.887Z,17.00
2023-11-19T06:24:51.195Z,17.23
2023-11-19T06:27:18.441Z,16.17
2023-11-19T06:29:45.816Z,16.58
2023-11-19T06:32:15.042Z,17.40
2023-11-19T06:34:43.248Z,16.23
2023-11-19T06:37:10.670Z,16.63
2023-11-19T06:39:38.493Z,16.75
2023-11-19T06:42:05.843Z,16.70
2023-11-19T06:44:32.992Z,16.77
2023-11-19T06:47:00.303Z,18.55
2023-11-19T06:49:27.664Z,17.88
2023-11-19T06:51:54.942Z,16.98
2023-11-19T06:54:22.565Z,19.20
2023-11-19T06:56:50.632Z,17.00
2023-11-19T06:59:17.839Z,17.88
2023-11-19T07:01:45.129Z,18.92
2023-11-19T07:04:15.007Z,18.25
2023-11-19T07:06:44.951Z,18.02
2023-11-19T07:09:12.236Z,17.33
2023-11-19T07:11:41.240Z,17.27
2023-11-19T07:14:11.597Z,16.88
2023-11-19T07:16:40.311Z,18.75
2023-11-19T07:19:07.858Z,17.33
2023-11-19T07:21:35.808Z,16.30
2023-11-19T07:24:04.489Z,17.17
2023-11-19T07:26:31.886Z,17.85
2023-11-19T07:28:59.444Z,16.00
2023-11-19T07:31:26.690Z,16.42
2023-11-19T07:33:54.010Z,16.58
2023-11-19T07:36:21.366Z,18.27
2023-11-19T07:38:51.722Z,15.80
2023-11-19T07:41:18.945Z,17.52
2023-11-19T07:43:48.004Z,16.75
2023-11-19T07:46:15.583Z,15.93
2023-11-19T07:48:43.682Z,18.90
2023-11-19T07:51:13.327Z,17.13
2023-11-19T07:53:41.978Z,18.83
2023-11-19T07:56:09.913Z,17.25
2023-11-19T07:58:37.962Z,18.67
2023-11-19T08:01:06.194Z,18.15
2023-11-19T08:03:35.823Z,16.40
2023-11-19T08:06:04.829Z,16.40
2023-11-19T08:08:34.152Z,17.92
2023-11-19T08:11:02.251Z,17.85
2023-11-19T08:13:29.387Z,19.35
2023-11-19T08:15:56.934Z,17.27
2023-11-19T08:18:24.285Z,16.20
2023-11-19T08:20:54.828Z,16.40
2023-11-19T08:23:22.277Z,17.25
2023-11-19T08:25:49.731Z,16.92
2023-11-19T08:28:17.040Z,18.20
2023-11-19T08:30:45.593Z,18.10
2023-11-19T08:33:12.937Z,16.52
2023-11-19T08:35:40.270Z,16.38
2023-11-19T08:38:08.199Z,16.98
2023-11-19T08:40:35.449Z,17.10
2023-11-19T08:43:02.726Z,18.60
2023-11-19T08:45:29.907Z,16.73
2023-11-19T08:47:57.591Z,17.77
2023-11-19T08:50:25.339Z,16.42
2023-11-19T08:52:52.726Z,15.82
2023-11-19T08:55:20.047Z,14.85
2023-11-19T08:57:47.708Z,16.75
2023-11-19T09:00:15.742Z,15.57
2023-11-19T09:02:44.524Z,17.90
2023-11-19T09:05:12.051Z,15.95
2023-11-19T09:07:39.392Z,15.10
2023-11-19T09:10:07.283Z,16.42
2023-11-19T09:12:34.733Z,17.17
2023-11-19T09:15:01.967Z,15.57
2023-11-19T09:17:29.430Z,16.88
2023-11-19T09:19:56.918Z,16.77
2023-11-19T09:22:24.130Z,16.55
2023-11-19T09:24:51.482Z,17.83
2023-11-19T09:27:18.776Z,17.08
2023-11-19T09:29:48.034Z,17.67
2023-11-19T09:32:15.557Z,19.10
2023-11-19T09:34:42.913Z,16.65
2023-11-19T09:39:40.096Z,15.88
2023-11-19T09:42:07.402Z,17.75
2023-11-19T09:44:34.697Z,17.45
2023-11-19T09:47:03.032Z,16.33
2023-11-19T09:52:01.049Z,18.98
2023-11-19T09:54:28.354Z,17.08
2023-11-19T09:57:04.224Z,20.55
2023-11-19T09:59:32.630Z,18.85
2023-11-19T10:02:00.663Z,18.80
2023-11-19T10:04:32.281Z,18.45
2023-11-19T10:06:59.660Z,21.35
2023-11-19T10:09:26.971Z,19.77
2023-11-19T10:11:54.259Z,20.27
2023-11-19T10:14:25.270Z,22.13
2023-11-19T10:16:52.668Z,23.17
2023-11-19T10:19:22.888Z,20.98
2023-11-19T10:21:50.485Z,22.77
2023-11-19T10:29:16.274Z,23.80
2023-11-19T10:31:58.457Z,20.98
2023-11-19T10:34:45.484Z,23.90
2023-11-19T10:37:44.929Z,20.92
2023-11-19T10:40:12.531Z,22.00
2023-11-19T10:42:39.776Z,22.52
2023-11-19T10:45:23.072Z,23.65
2023-11-19T10:47:52.806Z,24.00
2023-11-19T10:50:20.189Z,21.15
2023-11-19T10:52:50.172Z,22.27
2023-11-19T10:55:22.066Z,25.05
2023-11-19T10:57:51.441Z,24.15
2023-11-19T11:00:22.690Z,23.85
2023-11-19T11:02:56.444Z,23.42
2023-11-19T11:05:25.489Z,23.83
2023-11-19T11:07:56.859Z,24.27
2023-11-19T11:10:27.657Z,23.38
2023-11-19T11:12:59.862Z,24.27
2023-11-19T11:15:32.400Z,25.02
2023-11-19T11:18:03.888Z,26.40
2023-11-19T11:20:35.413Z,24.38
2023-11-19T11:23:24.353Z,26.30
2023-11-19T11:26:10.141Z,25.92
2023-11-19T11:29:15.209Z,25.88
2023-11-19T11:32:24.124Z,26.55
2023-11-19T11:35:18.784Z,29.05
2023-11-19T11:38:01.996Z,25.70
2023-11-19T11:40:29.297Z,27.38
2023-11-19T11:42:56.678Z,28.13
2023-11-19T11:45:42.432Z,29.75
2023-11-19T11:48:13.868Z,25.65
2023-11-19T11:51:10.078Z,24.33
2023-11-19T11:53:38.357Z,25.20
2023-11-19T11:56:09.596Z,27.15
2023-11-19T11:58:39.141Z,31.83
2023-11-19T12:01:09.604Z,27.58
2023-11-19T12:03:39.532Z,26.13
2023-11-19T12:06:07.370Z,27.08
2023-11-19T12:08:53.304Z,26.75
2023-11-19T12:11:21.199Z,27.40
2023-11-19T12:13:56.961Z,26.13
2023-11-19T12:16:24.592Z,28.23
2023-11-19T12:18:54.485Z,26.13
2023-11-19T12:21:32.323Z,23.08
2023-11-19T12:24:05.602Z,25.23
2023-11-19T12:26:37.156Z,24.20
2023-11-19T12:29:09.181Z,22.17
2023-11-19T12:31:37.728Z,25.08
2023-11-19T12:34:09.522Z,25.50
2023-11-19T12:36:36.784Z,23.05
2023-11-19T12:39:05.287Z,22.58
2023-11-19T12:41:32.442Z,23.55
2023-11-19T12:44:13.795Z,22.98
2023-11-19T12:46:41.194Z,21.17
2023-11-19T12:49:08.443Z,21.63
2023-11-19T12:51:35.764Z,21.52
2023-11-19T12:54:03.178Z,23.10
2023-11-19T12:56:31.130Z,25.55
2023-11-19T12:58:58.454Z,22.65
2023-11-19T13:01:25.748Z,23.55
2023-11-19T13:03:53.329Z,23.00
2023-11-19T13:06:22.752Z,22.50
2023-11-19T13:08:56.498Z,21.73
2023-11-19T13:11:37.754Z,19.27
2023-11-19T13:14:07.125Z,19.13
2023-11-19T13:16:34.623Z,19.38
2023-11-19T13:19:02.184Z,18.98
2023-11-19T13:21:30.956Z,16.92
2023-11-19T13:23:58.534Z,17.27
2023-11-19T13:26:25.820Z,15.65
2023-11-19T13:28:53.163Z,14.55
2023-11-19T13:31:20.547Z,17.35
2023-11-19T13:33:47.891Z,15.73
2023-11-19T13:36:17.320Z,19.30
2023-11-19T13:38:48.693Z,16.85
2023-11-19T13:41:16.180Z,16.85
2023-11-19T13:43:43.575Z,19.95
2023-11-19T13:46:11.964Z,17.58
2023-11-19T13:48:39.933Z,20.05
2023-11-19T13:51:07.764Z,16.23
2023-11-19T13:58:32.506Z,18.17
2023-11-19T14:01:00.182Z,18.00
2023-11-19T14:03:27.869Z,16.27
2023-11-19T14:05:56.596Z,19.05
2023-11-19T14:08:26.092Z,17.70
2023-11-19T14:10:56.772Z,20.08
2023-11-19T14:13:25.327Z,18.90
2023-11-19T14:15:53.256Z,18.25
2023-11-19T14:18:20.813Z,18.90
2023-11-19T14:20:48.006Z,20.23
2023-11-19T14:23:15.302Z,15.68
2023-11-19T14:25:42.556Z,18.92
2023-11-19T14:28:09.744Z,19.73
2023-11-19T14:30:37.084Z,17.55
2023-11-19T14:33:05.230Z,20.13
2023-11-19T14:35:34.300Z,19.60
2023-11-19T14:38:01.699Z,21.30
2023-11-19T14:45:26.385Z,20.33
2023-11-19T14:47:54.446Z,17.08
2023-11-19T14:50:21.714Z,16.65
2023-11-19T14:52:48.994Z,18.45
2023-11-19T14:55:16.440Z,20.13
2023-11-19T14:57:54.924Z,18.17
2023-11-19T15:00:26.951Z,17.58
2023-11-19T15:02:54.338Z,18.23
2023-11-19T15:05:21.792Z,18.95
2023-11-19T15:07:49.851Z,19.92
2023-11-19T15:10:17.110Z,19.35
2023-11-19T15:12:44.397Z,20.95
2023-11-19T15:15:14.917Z,22.48
2023-11-19T15:17:42.259Z,18.15
2023-11-19T15:20:10.114Z,18.98
2023-11-19T15:22:37.494Z,19.75
2023-11-19T15:25:04.942Z,18.73
2023-11-19T15:27:32.285Z,20.20
2023-11-19T15:29:59.816Z,20.35
2023-11-19T15:32:27.307Z,20.33
2023-11-19T15:34:54.531Z,20.17
2023-11-19T15:37:21.783Z,19.33
2023-11-19T15:39:50.119Z,17.30
2023-11-19T15:42:17.382Z,22.20
2023-11-19T15:44:45.022Z,21.08
2023-11-19T15:47:14.406Z,21.33
2023-11-19T15:49:41.875Z,19.48
2023-11-19T15:52:09.554Z,21.38
2023-11-19T15:54:38.338Z,21.08
2023-11-19T15:57:05.767Z,21.95
2023-11-19T15:59:33.028Z,20.65
2023-11-19T16:02:00.613Z,19.88
2023-11-19T16:04:27.907Z,17.45
2023-11-19T16:06:55.123Z,18.13
2023-11-19T16:09:23.580Z,19.73
2023-11-19T16:11:56.008Z,17.08
2023-11-19T16:14:25.794Z,16.80
2023-11-19T16:16:54.537Z,18.38
2023-11-19T16:19:22.180Z,19.55
2023-11-19T16:21:49.352Z,20.15
2023-11-19T16:24:17.362Z,19.67
2023-11-19T16:26:44.722Z,18.10
2023-11-19T16:29:12.419Z,20.23
2023-11-19T16:31:40.201Z,16.20
2023-11-19T16:34:07.657Z,20.23
2023-11-19T16:36:35.348Z,17.65
2023-11-19T16:44:10.634Z,15.85
2023-11-19T16:46:38.520Z,16.30
2023-11-19T16:49:06.411Z,15.23
2023-11-19T16:51:33.994Z,13.35
2023-11-19T16:54:03.253Z,13.23
2023-11-19T16:56:34.720Z,16.35
2023-11-19T16:59:02.790Z,15.93
2023-11-19T17:01:30.356Z,15.52
2023-11-19T17:03:59.702Z,16.40
2023-11-19T17:06:27.535Z,14.90
2023-11-19T17:08:55.149Z,14.70
2023-11-19T17:11:22.596Z,13.65
2023-11-19T17:13:50.070Z,13.05
2023-11-19T17:16:17.501Z,15.00
2023-11-19T17:18:44.906Z,14.52
2023-11-19T17:21:12.150Z,16.15
2023-11-19T17:23:40.719Z,13.48
2023-11-19T17:26:08.122Z,12.07
2023-11-19T17:28:38.224Z,15.10
2023-11-19T17:31:06.162Z,13.80
2023-11-19T17:33:33.437Z,17.02
2023-11-19T17:36:02.257Z,13.25
2023-11-19T17:38:29.711Z,14.75
2023-11-19T17:40:58.551Z,15.13
2023-11-19T17:43:26.767Z,16.80
2023-11-19T17:46:01.530Z,14.73
2023-11-19T17:48:29.283Z,14.45
2023-11-19T17:50:58.532Z,14.82
2023-11-19T17:53:26.153Z,14.55
2023-11-19T17:55:53.415Z,13.52
2023-11-19T17:58:21.056Z,14.40
2023-11-19T18:00:48.951Z,12.40
2023-11-19T18:03:16.215Z,14.25
2023-11-19T18:05:43.567Z,13.60
2023-11-19T18:08:13.839Z,16.70
2023-11-19T18:10:41.044Z,14.95
2023-11-19T18:13:08.560Z,16.70
2023-11-19T18:15:37.684Z,14.13
2023-11-19T18:18:05.477Z,14.18
2023-11-19T18:20:33.099Z,13.07
2023-11-19T18:23:02.037Z,13.63
2023-11-19T18:25:29.666Z,12.95
2023-11-19T18:27:56.977Z,15.23
2023-11-19T18:30:24.998Z,15.32
2023-11-19T18:32:52.614Z,16.92
2023-11-19T18:35:25.658Z,14.93
2023-11-19T18:37:53.426Z,15.23
2023-11-19T18:40:22.990Z,15.95
2023-11-19T18:42:53.077Z,16.27
2023-11-19T18:45:23.789Z,12.48
2023-11-19T18:47:52.269Z,13.13
2023-11-19T18:50:19.895Z,12.25
2023-11-19T18:52:47.143Z,15.88
2023-11-19T18:55:14.652Z,12.88
2023-11-19T18:57:41.878Z,14.25
2023-11-19T19:00:12.571Z,15.30
2023-11-19T19:02:39.966Z,13.48
2023-11-19T19:05:07.932Z,13.80
2023-11-19T19:07:35.427Z,14.00
2023-11-19T19:10:03.788Z,14.90
2023-11-19T19:12:31.061Z,15.93
2023-11-19T19:17:31.544Z,13.45
2023-11-19T19:20:00.466Z,13.63
2023-11-19T19:22:28.878Z,16.92
2023-11-19T19:24:57.047Z,14.48
2023-11-19T19:27:24.298Z,15.43
2023-11-19T19:29:51.498Z,17.48
2023-11-19T19:32:18.813Z,21.05
2023-11-19T19:34:46.020Z,19.88
2023-11-19T19:37:13.662Z,19.17
2023-11-19T19:43:03.757Z,21.77
2023-11-19T19:45:39.685Z,17.98
2023-11-19T19:48:07.556Z,20.13
2023-11-19T19:50:55.578Z,19.67
2023-11-19T19:53:23.844Z,17.25
2023-11-19T19:55:51.600Z,17.73
2023-11-19T19:58:19.309Z,17.42
2023-11-19T20:00:47.679Z,15.50
2023-11-19T20:03:15.593Z,20.05
2023-11-19T20:05:43.143Z,18.65
2023-11-19T20:08:10.487Z,19.17
2023-11-19T20:10:38.368Z,17.90
2023-11-19T20:13:11.649Z,17.02
2023-11-19T20:15:39.085Z,19.27
2023-11-19T20:18:11.828Z,16.83
2023-11-19T20:20:40.320Z,19.50
2023-11-19T20:23:07.812Z,17.13
2023-11-19T20:25:35.171Z,19.33
2023-11-19T20:28:02.381Z,18.80
2023-11-19T20:30:30.676Z,20.92
2023-11-19T20:32:57.895Z,20.77
2023-11-19T20:35:25.435Z,19.45
2023-11-19T20:37:52.836Z,20.65
2023-11-19T20:40:20.810Z,17.88
2023-11-19T20:42:48.125Z,20.63
2023-11-19T20:45:16.965Z,20.55
2023-11-19T20:47:47.664Z,20.70
2023-11-19T20:50:15.292Z,23.20
2023-11-19T20:52:42.552Z,24.27
2023-11-19T20:55:12.584Z,23.45
2023-11-19T20:57:40.202Z,20.17
2023-11-19T21:00:10.192Z,23.40
2023-11-19T21:02:37.569Z,28.38
2023-11-19T21:05:05.553Z,23.50
2023-11-19T21:07:32.923Z,20.77
2023-11-19T21:10:00.316Z,22.80
2023-11-19T21:12:27.769Z,22.42
2023-11-19T21:14:54.988Z,23.83
2023-11-19T21:17:22.786Z,25.17
2023-11-19T21:19:50.706Z,23.15
2023-11-19T21:22:18.520Z,25.33
2023-11-19T21:24:45.804Z,24.35
2023-11-19T21:27:14.527Z,25.48
2023-11-19T21:29:41.695Z,26.00
2023-11-19T21:32:08.964Z,22.80
2023-11-19T21:34:37.929Z,26.63
2023-11-19T21:37:05.432Z,33.20
2023-11-19T21:39:32.611Z,27.02
2023-11-19T21:41:59.850Z,27.80
2023-11-19T21:44:27.284Z,28.27
2023-11-19T21:46:54.464Z,25.23
2023-11-19T21:49:21.691Z,24.73
2023-11-19T21:51:48.988Z,22.92
2023-11-19T21:54:16.264Z,24.45
2023-11-19T21:56:43.571Z,24.30
2023-11-19T21:59:10.731Z,24.98
2023-11-19T22:01:38.122Z,25.42
2023-11-19T22:04:05.850Z,26.80
2023-11-19T22:06:33.165Z,31.55
2023-11-19T22:09:00.565Z,26.65
2023-11-19T22:11:29.269Z,26.88
2023-11-19T22:13:56.483Z,27.13
2023-11-19T22:16:23.797Z,29.50
2023-11-19T22:18:51.825Z,27.83
2023-11-19T22:21:19.236Z,33.75
2023-11-19T22:23:46.442Z,33.92
2023-11-19T22:26:13.657Z,35.97
2023-11-19T22:28:42.142Z,39.38
2023-11-19T22:31:09.557Z,30.80
2023-11-19T22:33:37.007Z,27.65
2023-11-19T22:36:04.505Z,29.67
2023-11-19T22:38:31.729Z,32.55
2023-11-19T22:40:58.865Z,29.75
2023-11-19T22:43:26.097Z,28.70
2023-11-19T22:45:53.281Z,29.95
2023-11-19T22:48:20.499Z,27.58
2023-11-19T22:50:47.766Z,28.85
2023-11-19T22:53:15.470Z,31.35
2023-11-19T22:55:42.669Z,31.45
2023-11-19T22:58:10.548Z,38.08
2023-11-19T23:00:38.230Z,35.72
2023-11-19T23:03:05.775Z,33.00
2023-11-19T23:05:35.302Z,38.60
2023-11-19T23:08:02.480Z,30.33
2023-11-19T23:10:29.730Z,30.20
2023-11-19T23:12:58.799Z,39.45
2023-11-19T23:15:27.315Z,36.87
2023-11-19T23:17:54.712Z,32.83
2023-11-19T23:20:22.629Z,36.05
2023-11-19T23:22:50.493Z,33.88
2023-11-19T23:25:17.784Z,28.00
2023-11-19T23:27:45.093Z,27.50
2023-11-19T23:30:14.672Z,26.92
2023-11-19T23:32:41.931Z,32.70
2023-11-19T23:35:11.019Z,27.30
2023-11-19T23:37:38.919Z,31.60
2023-11-19T23:40:07.461Z,33.53
2023-11-19T23:42:34.903Z,35.03
2023-11-19T23:45:02.483Z,41.33
2023-11-19T23:47:29.994Z,32.08
2023-11-19T23:49:57.380Z,38.20
2023-11-19T23:52:24.609Z,26.05
2023-11-19T23:54:52.283Z,28.42
2023-11-19T23:57:19.537Z,30.95
2023-11-19T23:59:46.954Z,34.17
